createdAt,value
2023-05-13T00:01:10.895Z,11.40
2023-05-13T00:03:38.169Z,11.10
2023-05-13T00:06:04.955Z,10.40
2023-05-13T00:08:31.829Z,11.57
2023-05-13T00:10:58.443Z,10.60
2023-05-13T00:13:24.963Z,10.33
2023-05-13T00:15:51.583Z,10.60
2023-05-13T00:18:18.536Z,10.20
2023-05-13T00:20:45.254Z,11.10
2023-05-13T00:23:11.857Z,10.87
2023-05-13T00:25:38.468Z,13.03
2023-05-13T00:28:05.134Z,13.10
2023-05-13T00:30:31.705Z,15.73
2023-05-13T00:32:58.794Z,11.30
2023-05-13T00:35:25.536Z,13.40
2023-05-13T00:37:52.132Z,11.43
2023-05-13T00:40:23.997Z,10.23
2023-05-13T00:42:51.534Z,13.20
2023-05-13T00:45:18.694Z,12.80
2023-05-13T00:47:45.598Z,11.97
2023-05-13T00:50:13.721Z,12.20
2023-05-13T00:52:41.900Z,11.73
2023-05-13T00:55:09.462Z,13.00
2023-05-13T00:57:36.889Z,11.50
2023-05-13T01:00:05.949Z,11.17
2023-05-13T01:02:59.697Z,12.37
2023-05-13T01:05:44.514Z,12.67
2023-05-13T01:08:35.536Z,11.17
2023-05-13T01:11:06.708Z,13.10
2023-05-13T01:13:38.233Z,12.43
2023-05-13T01:16:13.639Z,12.93
2023-05-13T01:19:02.706Z,13.10
2023-05-13T01:21:29.725Z,16.73
2023-05-13T01:23:56.479Z,14.93
2023-05-13T01:26:23.657Z,12.30
2023-05-13T01:28:50.312Z,14.27
2023-05-13T01:31:17.276Z,12.10
2023-05-13T01:33:44.012Z,12.00
2023-05-13T01:36:10.655Z,14.53
2023-05-13T01:38:37.937Z,14.30
2023-05-13T01:41:04.580Z,13.33
2023-05-13T01:43:31.202Z,12.97
2023-05-13T01:46:00.655Z,14.27
2023-05-13T01:48:27.274Z,11.67
2023-05-13T01:50:54.789Z,12.43
2023-05-13T01:53:21.389Z,12.53
2023-05-13T01:55:47.835Z,13.07
2023-05-13T01:58:14.580Z,13.20
2023-05-13T02:00:41.239Z,13.83
2023-05-13T02:03:07.930Z,13.57
2023-05-13T02:05:34.652Z,13.90
2023-05-13T02:08:01.213Z,12.93
2023-05-13T02:10:27.734Z,12.10
2023-05-13T02:12:54.300Z,13.50
2023-05-13T02:15:20.852Z,13.40
2023-05-13T02:17:47.612Z,13.33
2023-05-13T02:20:14.770Z,13.90
2023-05-13T02:22:41.292Z,13.10
2023-05-13T02:25:08.416Z,11.13
2023-05-13T02:27:34.976Z,12.23
2023-05-13T02:30:01.595Z,13.13
2023-05-13T02:32:28.471Z,13.27
2023-05-13T02:34:54.998Z,12.57
2023-05-13T02:37:21.739Z,11.57
2023-05-13T02:39:48.392Z,11.33
2023-05-13T02:42:14.980Z,12.80
2023-05-13T02:44:41.570Z,13.20
2023-05-13T02:47:08.326Z,11.10
2023-05-13T02:49:34.809Z,12.50
2023-05-13T02:52:01.445Z,12.50
2023-05-13T02:54:28.497Z,14.00
2023-05-13T02:56:55.193Z,15.63
2023-05-13T02:59:21.781Z,10.37
2023-05-13T03:01:48.439Z,11.20
2023-05-13T03:04:15.154Z,12.00
2023-05-13T03:06:41.667Z,11.80
2023-05-13T03:09:08.224Z,10.77
2023-05-13T03:11:34.910Z,12.50
2023-05-13T03:14:01.418Z,12.63
2023-05-13T03:16:27.970Z,13.23
2023-05-13T03:18:54.771Z,12.43
2023-05-13T03:21:21.382Z,12.77
2023-05-13T03:23:48.125Z,14.53
2023-05-13T03:26:14.674Z,12.27
2023-05-13T03:28:41.381Z,12.77
2023-05-13T03:31:08.122Z,12.00
2023-05-13T03:33:34.734Z,12.53
2023-05-13T03:36:01.269Z,12.67
2023-05-13T03:38:28.462Z,14.70
2023-05-13T03:40:55.002Z,12.60
2023-05-13T03:43:21.643Z,12.70
2023-05-13T03:45:49.151Z,11.43
2023-05-13T03:48:15.753Z,12.20
2023-05-13T03:50:42.599Z,11.53
2023-05-13T03:53:11.091Z,13.70
2023-05-13T03:55:37.929Z,9.97
2023-05-13T03:58:15.069Z,9.60
2023-05-13T04:00:42.747Z,8.97
2023-05-13T04:03:09.675Z,9.60
2023-05-13T04:05:36.378Z,9.40
2023-05-13T04:08:02.927Z,8.50
2023-05-13T04:10:29.726Z,8.43
2023-05-13T04:12:56.466Z,7.60
2023-05-13T04:15:23.405Z,8.07
2023-05-13T04:17:50.063Z,7.33
2023-05-13T04:20:16.633Z,7.90
2023-05-13T04:22:43.200Z,7.70
2023-05-13T04:25:10.243Z,10.10
2023-05-13T04:27:37.265Z,11.93
2023-05-13T04:30:04.081Z,11.50
2023-05-13T04:32:31.369Z,10.90
2023-05-13T04:34:57.945Z,7.10
2023-05-13T04:37:24.594Z,6.40
2023-05-13T04:39:51.097Z,6.60
2023-05-13T04:42:17.771Z,5.60
2023-05-13T04:44:44.402Z,5.97
2023-05-13T04:47:11.237Z,7.87
2023-05-13T04:49:37.887Z,8.10
2023-05-13T04:52:06.627Z,11.13
2023-05-13T04:54:35.626Z,10.30
2023-05-13T04:57:02.673Z,11.40
2023-05-13T04:59:29.193Z,10.57
2023-05-13T05:01:55.971Z,10.67
2023-05-13T05:04:22.651Z,10.20
2023-05-13T05:06:49.311Z,11.83
2023-05-13T05:09:16.058Z,11.47
2023-05-13T05:11:42.629Z,9.73
2023-05-13T05:14:09.208Z,8.23
2023-05-13T05:16:35.714Z,9.50
2023-05-13T05:19:02.469Z,9.60
2023-05-13T05:21:29.149Z,8.93
2023-05-13T05:23:55.776Z,8.10
2023-05-13T05:26:22.466Z,7.40
2023-05-13T05:28:49.004Z,6.30
2023-05-13T05:31:15.806Z,5.77
2023-05-13T05:33:42.605Z,4.77
2023-05-13T05:36:09.390Z,5.07
2023-05-13T05:38:36.208Z,6.70
2023-05-13T05:41:02.849Z,6.60
2023-05-13T05:43:29.594Z,4.97
2023-05-13T05:45:56.180Z,5.43
2023-05-13T05:48:22.867Z,3.77
2023-05-13T05:50:49.506Z,3.20
2023-05-13T05:53:16.226Z,2.60
2023-05-13T05:55:42.881Z,3.10
2023-05-13T05:58:10.375Z,3.47
2023-05-13T06:00:36.854Z,3.60
2023-05-13T06:03:03.503Z,3.00
2023-05-13T06:05:30.203Z,3.30
2023-05-13T06:07:56.707Z,3.43
2023-05-13T06:10:23.465Z,2.80
2023-05-13T06:12:51.491Z,2.80
2023-05-13T06:15:18.323Z,3.03
2023-05-13T06:17:45.059Z,2.37
2023-05-13T06:20:12.468Z,2.43
2023-05-13T06:22:40.746Z,3.97
2023-05-13T06:25:07.648Z,3.20
2023-05-13T06:27:34.244Z,3.10
2023-05-13T06:30:01.070Z,3.23
2023-05-13T06:32:27.721Z,2.93
2023-05-13T06:34:55.810Z,3.93
2023-05-13T06:37:22.870Z,2.40
2023-05-13T06:39:49.562Z,2.70
2023-05-13T06:42:16.410Z,2.73
2023-05-13T06:44:43.165Z,2.40
2023-05-13T06:47:14.904Z,2.60
2023-05-13T06:49:42.290Z,2.60
2023-05-13T06:52:09.735Z,2.33
2023-05-13T06:54:36.392Z,3.37
2023-05-13T06:57:05.700Z,2.47
2023-05-13T06:59:32.241Z,2.90
2023-05-13T07:01:58.948Z,3.00
2023-05-13T07:04:25.771Z,2.50
2023-05-13T07:09:34.824Z,2.10
2023-05-13T07:12:01.974Z,2.30
2023-05-13T07:14:28.474Z,2.20
2023-05-13T07:16:55.193Z,2.60
2023-05-13T07:19:21.962Z,2.33
2023-05-13T07:21:48.540Z,2.10
2023-05-13T07:24:15.392Z,2.50
2023-05-13T07:26:42.132Z,2.33
2023-05-13T07:29:08.746Z,2.67
2023-05-13T07:31:35.787Z,2.03
2023-05-13T07:34:02.466Z,2.20
2023-05-13T07:36:29.020Z,2.10
2023-05-13T07:38:55.719Z,2.27
2023-05-13T07:41:22.510Z,2.20
2023-05-13T07:43:49.324Z,2.63
2023-05-13T07:46:15.895Z,2.60
2023-05-13T07:48:42.637Z,2.40
2023-05-13T07:51:10.085Z,2.80
2023-05-13T07:53:36.872Z,3.70
2023-05-13T07:56:03.747Z,2.43
2023-05-13T07:58:30.568Z,2.10
2023-05-13T08:00:57.121Z,2.10
2023-05-13T08:03:23.922Z,2.17
2023-05-13T08:05:50.593Z,2.03
2023-05-13T08:08:17.176Z,2.10
2023-05-13T08:10:43.833Z,1.83
2023-05-13T08:13:10.466Z,2.40
2023-05-13T08:15:37.902Z,2.00
2023-05-13T08:18:04.630Z,2.00
2023-05-13T08:20:31.282Z,2.00
2023-05-13T08:22:58.258Z,1.90
2023-05-13T08:25:25.415Z,2.10
2023-05-13T08:27:52.028Z,1.90
2023-05-13T08:30:18.726Z,1.97
2023-05-13T08:32:45.581Z,2.30
2023-05-13T08:35:12.245Z,2.90
2023-05-13T08:37:38.817Z,1.90
2023-05-13T08:40:06.483Z,3.00
2023-05-13T08:42:34.013Z,2.70
2023-05-13T08:45:05.083Z,2.50
2023-05-13T08:47:34.303Z,2.90
2023-05-13T08:50:02.768Z,2.70
2023-05-13T08:52:29.352Z,2.63
2023-05-13T08:54:59.181Z,2.90
2023-05-13T08:57:26.444Z,2.57
2023-05-13T08:59:53.088Z,2.47
2023-05-13T09:02:19.889Z,2.13
2023-05-13T09:04:51.626Z,2.10
2023-05-13T09:07:18.672Z,2.20
2023-05-13T09:09:45.493Z,2.97
2023-05-13T09:12:12.244Z,2.50
2023-05-13T09:14:38.962Z,2.63
2023-05-13T09:17:05.838Z,4.80
2023-05-13T09:19:32.562Z,4.63
2023-05-13T09:21:59.683Z,5.20
2023-05-13T09:24:26.361Z,4.47
2023-05-13T09:26:53.337Z,4.67
2023-05-13T09:29:26.740Z,4.73
2023-05-13T09:31:55.590Z,5.10
2023-05-13T09:34:29.661Z,4.80
2023-05-13T09:37:04.484Z,4.90
2023-05-13T09:39:34.068Z,4.77
2023-05-13T09:42:04.298Z,4.20
2023-05-13T09:44:32.192Z,3.73
2023-05-13T09:46:59.267Z,4.70
2023-05-13T09:49:29.023Z,3.80
2023-05-13T09:51:55.634Z,4.13
2023-05-13T09:54:22.325Z,4.40
2023-05-13T09:56:48.901Z,4.67
2023-05-13T09:59:15.860Z,4.70
2023-05-13T10:01:42.895Z,4.30
2023-05-13T10:04:10.076Z,4.57
2023-05-13T10:06:37.661Z,5.10
2023-05-13T10:09:05.578Z,5.53
2023-05-13T10:11:33.808Z,4.27
2023-05-13T10:14:02.343Z,4.93
2023-05-13T10:16:31.765Z,5.07
2023-05-13T10:19:01.280Z,5.67
2023-05-13T10:21:28.203Z,4.53
2023-05-13T10:23:56.584Z,4.33
2023-05-13T10:26:24.022Z,4.60
2023-05-13T10:28:50.616Z,5.00
2023-05-13T10:31:17.787Z,4.87
2023-05-13T10:33:45.079Z,4.80
2023-05-13T10:36:49.523Z,5.03
2023-05-13T10:39:53.417Z,4.63
2023-05-13T10:42:38.269Z,5.33
2023-05-13T10:45:05.582Z,4.30
2023-05-13T10:47:33.726Z,5.43
2023-05-13T10:50:05.398Z,5.53
2023-05-13T10:52:43.221Z,5.03
2023-05-13T10:55:16.764Z,5.70
2023-05-13T10:58:03.886Z,5.53
2023-05-13T11:00:31.792Z,6.00
2023-05-13T11:03:29.679Z,6.00
2023-05-13T11:06:17.102Z,5.37
2023-05-13T11:08:45.723Z,5.80
2023-05-13T11:11:21.563Z,7.80
2023-05-13T11:13:52.772Z,5.80
2023-05-13T11:16:20.458Z,5.83
2023-05-13T11:18:47.203Z,4.33
2023-05-13T11:21:14.283Z,5.10
2023-05-13T11:23:57.834Z,5.87
2023-05-13T11:26:24.633Z,8.30
2023-05-13T11:28:55.067Z,6.70
2023-05-13T11:31:22.974Z,5.43
2023-05-13T11:34:19.443Z,5.90
2023-05-13T11:36:47.842Z,6.20
2023-05-13T11:39:16.976Z,5.13
2023-05-13T11:41:45.712Z,6.77
2023-05-13T11:44:14.515Z,6.60
2023-05-13T11:46:51.918Z,6.33
2023-05-13T11:49:43.657Z,5.90
2023-05-13T11:52:11.245Z,6.57
2023-05-13T11:54:48.974Z,5.70
2023-05-13T11:57:18.425Z,5.97
2023-05-13T12:00:06.671Z,6.77
2023-05-13T12:02:36.379Z,5.47
2023-05-13T12:05:12.774Z,5.37
2023-05-13T12:07:39.762Z,6.67
2023-05-13T12:10:07.223Z,6.80
2023-05-13T12:12:35.131Z,6.20
2023-05-13T12:15:04.087Z,6.30
2023-05-13T12:17:31.738Z,6.10
2023-05-13T12:20:12.318Z,6.60
2023-05-13T12:22:44.763Z,6.43
2023-05-13T12:25:36.462Z,7.20
2023-05-13T12:28:20.238Z,6.30
2023-05-13T12:30:59.544Z,5.50
2023-05-13T12:33:31.097Z,5.73
2023-05-13T12:36:20.685Z,5.03
2023-05-13T12:39:00.261Z,6.10
2023-05-13T12:41:40.519Z,5.60
2023-05-13T12:44:13.753Z,5.97
2023-05-13T12:46:51.319Z,6.57
2023-05-13T12:49:18.042Z,6.47
2023-05-13T12:51:44.792Z,6.63
2023-05-13T12:54:12.030Z,5.60
2023-05-13T12:56:41.709Z,7.10
2023-05-13T12:59:09.043Z,6.37
2023-05-13T13:01:36.272Z,6.80
2023-05-13T13:04:03.189Z,6.93
2023-05-13T13:06:29.920Z,6.27
2023-05-13T13:08:56.621Z,6.50
2023-05-13T13:11:23.384Z,6.73
2023-05-13T13:13:50.550Z,6.00
2023-05-13T13:16:17.197Z,5.50
2023-05-13T13:18:46.227Z,7.87
2023-05-13T13:21:12.868Z,7.97
2023-05-13T13:23:39.544Z,8.87
2023-05-13T13:26:06.133Z,5.53
2023-05-13T13:28:32.999Z,7.17
2023-05-13T13:31:00.181Z,5.33
2023-05-13T13:33:27.121Z,6.10
2023-05-13T13:35:53.716Z,6.90
2023-05-13T13:38:20.370Z,6.60
2023-05-13T13:40:47.111Z,6.40
2023-05-13T13:43:13.641Z,6.43
2023-05-13T13:45:40.582Z,8.33
2023-05-13T13:48:07.324Z,6.67
2023-05-13T13:50:34.097Z,6.20
2023-05-13T13:53:00.846Z,6.37
2023-05-13T13:55:27.576Z,6.13
2023-05-13T13:57:54.052Z,6.33
2023-05-13T14:00:21.206Z,6.10
2023-05-13T14:02:48.651Z,5.80
2023-05-13T14:05:16.100Z,6.07
2023-05-13T14:07:42.733Z,5.97
2023-05-13T14:10:09.865Z,5.20
2023-05-13T14:12:36.586Z,5.97
2023-05-13T14:15:03.242Z,5.77
2023-05-13T14:17:30.330Z,4.90
2023-05-13T14:19:56.876Z,5.20
2023-05-13T14:22:24.233Z,5.50
2023-05-13T14:24:52.140Z,4.57
2023-05-13T14:27:19.062Z,3.60
2023-05-13T14:29:47.616Z,3.30
2023-05-13T14:32:14.560Z,2.90
2023-05-13T14:34:41.372Z,2.80
2023-05-13T14:37:07.999Z,2.77
2023-05-13T14:39:34.831Z,2.90
2023-05-13T14:42:01.722Z,3.27
2023-05-13T14:44:28.332Z,2.40
2023-05-13T14:46:55.281Z,2.87
2023-05-13T14:49:22.074Z,2.80
2023-05-13T14:51:48.672Z,2.97
2023-05-13T14:54:15.412Z,3.00
2023-05-13T14:56:41.957Z,3.30
2023-05-13T14:59:08.664Z,6.20
2023-05-13T15:01:35.534Z,4.33
2023-05-13T15:04:02.300Z,3.90
2023-05-13T15:06:29.282Z,4.53
2023-05-13T15:08:56.483Z,4.67
2023-05-13T15:11:23.349Z,4.23
2023-05-13T15:13:50.168Z,3.93
2023-05-13T15:16:16.658Z,4.50
2023-05-13T15:18:43.343Z,4.40
2023-05-13T15:21:10.224Z,5.70
2023-05-13T15:23:36.973Z,5.47
2023-05-13T15:26:03.572Z,4.73
2023-05-13T15:28:30.419Z,4.30
2023-05-13T15:30:57.170Z,4.03
2023-05-13T15:33:23.731Z,3.87
2023-05-13T15:35:51.008Z,4.80
2023-05-13T15:38:18.174Z,5.43
2023-05-13T15:40:45.065Z,6.90
2023-05-13T15:43:11.773Z,8.20
2023-05-13T15:45:40.183Z,8.03
2023-05-13T15:48:07.341Z,7.30
2023-05-13T15:50:34.168Z,7.27
2023-05-13T15:53:01.097Z,6.00
2023-05-13T15:55:27.756Z,11.67
2023-05-13T15:57:54.349Z,13.70
2023-05-13T16:00:21.054Z,12.83
2023-05-13T16:02:48.058Z,8.80
2023-05-13T16:05:19.242Z,6.27
2023-05-13T16:07:45.974Z,5.90
2023-05-13T16:10:12.525Z,6.83
2023-05-13T16:12:39.166Z,5.80
2023-05-13T16:15:06.628Z,6.27
2023-05-13T16:17:33.486Z,6.40
2023-05-13T16:20:00.286Z,6.10
2023-05-13T16:22:28.126Z,5.27
2023-05-13T16:24:58.169Z,4.10
2023-05-13T16:27:24.766Z,5.20
2023-05-13T16:29:52.135Z,4.87
2023-05-13T16:32:18.845Z,4.37
2023-05-13T16:34:45.353Z,4.20
2023-05-13T16:37:11.957Z,5.40
2023-05-13T16:39:38.606Z,5.23
2023-05-13T16:42:05.937Z,4.30
2023-05-13T16:44:32.435Z,4.57
2023-05-13T16:46:59.161Z,4.47
2023-05-13T16:49:25.832Z,2.67
2023-05-13T16:51:52.449Z,2.93
2023-05-13T16:54:19.038Z,2.80
2023-05-13T16:56:46.839Z,2.63
2023-05-13T16:59:24.661Z,2.97
2023-05-13T17:01:52.360Z,2.70
2023-05-13T17:04:19.756Z,2.33
2023-05-13T17:06:46.217Z,2.10
2023-05-13T17:09:12.989Z,2.00
2023-05-13T17:11:39.627Z,2.03
2023-05-13T17:14:06.604Z,3.00
2023-05-13T17:16:33.382Z,1.97
2023-05-13T17:19:00.035Z,2.33
2023-05-13T17:21:26.695Z,3.03
2023-05-13T17:23:54.813Z,2.53
2023-05-13T17:26:22.235Z,4.17
2023-05-13T17:28:49.740Z,3.60
2023-05-13T17:31:16.597Z,2.83
2023-05-13T17:33:43.252Z,2.53
2023-05-13T17:36:10.913Z,2.70
2023-05-13T17:38:37.885Z,2.57
2023-05-13T17:41:04.852Z,2.57
2023-05-13T17:43:31.407Z,2.63
2023-05-13T17:45:57.899Z,2.97
2023-05-13T17:48:24.713Z,5.60
2023-05-13T17:50:51.671Z,2.83
2023-05-13T17:53:18.719Z,2.40
2023-05-13T17:55:45.344Z,2.30
2023-05-13T17:58:12.069Z,2.17
2023-05-13T18:00:38.656Z,2.20
2023-05-13T18:03:05.431Z,2.00
2023-05-13T18:05:32.352Z,2.53
2023-05-13T18:07:59.446Z,2.63
2023-05-13T18:10:27.422Z,2.17
2023-05-13T18:12:54.176Z,2.93
2023-05-13T18:15:20.785Z,2.30
2023-05-13T18:17:47.609Z,3.60
2023-05-13T18:20:14.231Z,3.23
2023-05-13T18:22:40.945Z,3.40
2023-05-13T18:25:08.354Z,3.20
2023-05-13T18:27:35.028Z,3.40
2023-05-13T18:30:01.559Z,2.50
2023-05-13T18:32:28.331Z,2.43
2023-05-13T18:34:54.930Z,2.43
2023-05-13T18:37:21.518Z,2.20
2023-05-13T18:39:48.744Z,3.40
2023-05-13T18:42:15.366Z,2.77
2023-05-13T18:44:42.161Z,2.90
2023-05-13T18:47:08.688Z,2.57
2023-05-13T18:49:36.018Z,2.87
2023-05-13T18:52:02.696Z,3.10
2023-05-13T18:54:29.405Z,2.87
2023-05-13T18:56:56.296Z,2.97
2023-05-13T18:59:23.135Z,2.83
2023-05-13T19:01:49.861Z,2.30
2023-05-13T19:04:16.713Z,2.40
2023-05-13T19:06:43.437Z,2.70
2023-05-13T19:09:10.069Z,3.13
2023-05-13T19:11:36.748Z,2.80
2023-05-13T19:14:03.459Z,2.43
2023-05-13T19:16:30.171Z,4.80
2023-05-13T19:18:56.808Z,4.10
2023-05-13T19:21:23.858Z,3.93
2023-05-13T19:23:50.577Z,3.80
2023-05-13T19:26:17.313Z,2.60
2023-05-13T19:28:44.576Z,2.93
2023-05-13T19:31:11.296Z,2.50
2023-05-13T19:33:37.912Z,2.77
2023-05-13T19:36:05.580Z,2.60
2023-05-13T19:38:33.426Z,2.60
2023-05-13T19:40:59.999Z,2.87
2023-05-13T19:43:26.596Z,3.43
2023-05-13T19:45:55.495Z,3.17
2023-05-13T19:48:22.079Z,2.70
2023-05-13T19:50:48.799Z,3.80
2023-05-13T19:53:15.459Z,2.77
2023-05-13T19:55:42.136Z,3.10
2023-05-13T19:58:08.585Z,2.67
2023-05-13T20:00:35.399Z,3.20
2023-05-13T20:03:02.037Z,3.30
2023-05-13T20:05:28.909Z,3.90
2023-05-13T20:07:55.554Z,3.27
2023-05-13T20:10:22.503Z,3.40
2023-05-13T20:12:49.237Z,4.17
2023-05-13T20:15:17.247Z,2.80
2023-05-13T20:17:45.467Z,3.47
2023-05-13T20:20:12.642Z,2.67
2023-05-13T20:22:39.289Z,3.13
2023-05-13T20:25:06.306Z,3.10
2023-05-13T20:27:32.928Z,2.80
2023-05-13T20:30:01.170Z,3.60
2023-05-13T20:32:27.923Z,3.10
2023-05-13T20:34:54.692Z,3.80
2023-05-13T20:37:24.078Z,3.03
2023-05-13T20:39:51.152Z,3.20
2023-05-13T20:42:17.908Z,2.90
2023-05-13T20:44:46.401Z,2.67
2023-05-13T20:47:13.611Z,2.80
2023-05-13T20:49:43.870Z,2.70
2023-05-13T20:52:11.273Z,2.40
2023-05-13T20:54:38.249Z,2.70
2023-05-13T20:57:05.186Z,2.20
2023-05-13T20:59:31.693Z,2.40
2023-05-13T21:01:58.806Z,2.53
2023-05-13T21:04:28.349Z,2.40
2023-05-13T21:06:55.215Z,3.33
2023-05-13T21:09:21.725Z,2.40
2023-05-13T21:11:48.463Z,2.80
2023-05-13T21:14:15.085Z,2.43
2023-05-13T21:16:41.636Z,3.23
2023-05-13T21:19:08.591Z,2.57
2023-05-13T21:21:35.160Z,3.80
2023-05-13T21:24:01.622Z,3.27
2023-05-13T21:26:28.166Z,3.50
2023-05-13T21:28:55.009Z,4.57
2023-05-13T21:31:21.878Z,4.47
2023-05-13T21:33:49.032Z,3.50
2023-05-13T21:36:15.741Z,2.87
2023-05-13T21:38:42.430Z,3.93
2023-05-13T21:41:08.930Z,3.97
2023-05-13T21:43:35.427Z,4.27
2023-05-13T21:46:03.301Z,3.53
2023-05-13T21:48:30.015Z,3.70
2023-05-13T21:50:56.487Z,2.50
2023-05-13T21:53:23.145Z,2.40
2023-05-13T21:55:50.234Z,2.70
2023-05-13T21:58:16.879Z,2.70
2023-05-13T22:00:43.564Z,3.90
2023-05-13T22:03:10.264Z,4.47
2023-05-13T22:05:42.230Z,4.40
2023-05-13T22:08:08.800Z,3.80
2023-05-13T22:10:35.346Z,4.00
2023-05-13T22:13:02.010Z,4.37
2023-05-13T22:15:28.739Z,4.90
2023-05-13T22:17:55.499Z,4.70
2023-05-13T22:20:23.246Z,5.40
2023-05-13T22:22:50.033Z,5.60
2023-05-13T22:25:16.717Z,4.60
2023-05-13T22:27:43.372Z,6.00
2023-05-13T22:30:10.321Z,5.57
2023-05-13T22:32:38.438Z,5.20
2023-05-13T22:35:05.507Z,6.10
2023-05-13T22:37:32.058Z,6.37
2023-05-13T22:39:58.664Z,4.50
2023-05-13T22:42:25.991Z,5.17
2023-05-13T22:44:52.550Z,5.03
2023-05-13T22:47:19.106Z,4.20
2023-05-13T22:49:45.945Z,4.90
2023-05-13T22:52:12.742Z,4.50
2023-05-13T22:54:39.272Z,4.13
2023-05-13T22:57:06.056Z,4.80
2023-05-13T22:59:32.650Z,3.50
2023-05-13T23:01:59.151Z,4.43
2023-05-13T23:04:26.088Z,4.37
2023-05-13T23:06:52.735Z,4.30
2023-05-13T23:09:19.421Z,4.23
2023-05-13T23:11:46.419Z,4.97
2023-05-13T23:14:12.927Z,4.40
2023-05-13T23:16:39.608Z,5.30
2023-05-13T23:19:06.250Z,4.37
2023-05-13T23:21:32.904Z,3.83
2023-05-13T23:23:59.548Z,3.70
2023-05-13T23:26:26.182Z,4.87
2023-05-13T23:28:52.931Z,3.90
2023-05-13T23:31:19.757Z,4.50
2023-05-13T23:33:46.452Z,3.90
2023-05-13T23:36:13.049Z,4.30
2023-05-13T23:38:39.733Z,4.00
2023-05-13T23:41:06.366Z,3.40
2023-05-13T23:43:32.905Z,4.03
2023-05-13T23:45:59.587Z,4.30
2023-05-13T23:48:29.273Z,4.13
2023-05-13T23:50:55.760Z,3.80
2023-05-13T23:53:22.340Z,3.77
2023-05-13T23:55:48.874Z,4.00
2023-05-13T23:58:15.654Z,3.73
